sensor_id;sensor_type;location;lat;lon;timestamp;P1;durP1;ratioP1;P2;durP2;ratioP2
8317;SDS011;4196;48.926;8.964;2023-12-20T00:00:47;8.10;;;5.53;;
8317;SDS011;4196;48.926;8.964;2023-12-20T00:03:33;10.00;;;6.77;;
8317;SDS011;4196;48.926;8.964;2023-12-20T00:06:28;9.73;;;6.00;;
8317;SDS011;4196;48.926;8.964;2023-12-20T00:09:14;10.40;;;7.30;;
8317;SDS011;4196;48.926;8.964;2023-12-20T00:12:01;10.27;;;6.00;;
8317;SDS011;4196;48.926;8.964;2023-12-20T00:14:47;7.97;;;5.97;;
8317;SDS011;4196;48.926;8.964;2023-12-20T00:17:33;9.83;;;7.10;;
8317;SDS011;4196;48.926;8.964;2023-12-20T00:20:21;10.73;;;6.47;;
8317;SDS011;4196;48.926;8.964;2023-12-20T00:23:08;8.77;;;6.17;;
8317;SDS011;4196;48.926;8.964;2023-12-20T00:25:55;9.93;;;6.57;;
8317;SDS011;4196;48.926;8.964;2023-12-20T00:28:41;10.63;;;6.33;;
8317;SDS011;4196;48.926;8.964;2023-12-20T00:31:31;9.90;;;7.13;;
8317;SDS011;4196;48.926;8.964;2023-12-20T00:34:18;10.00;;;6.10;;
8317;SDS011;4196;48.926;8.964;2023-12-20T00:37:04;11.27;;;7.47;;
8317;SDS011;4196;48.926;8.964;2023-12-20T00:39:52;11.60;;;6.80;;
8317;SDS011;4196;48.926;8.964;2023-12-20T00:42:38;10.07;;;7.73;;
8317;SDS011;4196;48.926;8.964;2023-12-20T00:45:25;9.73;;;7.17;;
8317;SDS011;4196;48.926;8.964;2023-12-20T00:48:12;10.03;;;7.00;;
8317;SDS011;4196;48.926;8.964;2023-12-20T00:50:59;10.97;;;7.57;;
8317;SDS011;4196;48.926;8.964;2023-12-20T00:53:45;9.03;;;6.50;;
8317;SDS011;4196;48.926;8.964;2023-12-20T00:56:35;9.57;;;6.10;;
8317;SDS011;4196;48.926;8.964;2023-12-20T00:59:22;11.93;;;7.03;;
8317;SDS011;4196;48.926;8.964;2023-12-20T01:02:08;11.50;;;6.97;;
8317;SDS011;4196;48.926;8.964;2023-12-20T01:04:56;8.90;;;6.93;;
8317;SDS011;4196;48.926;8.964;2023-12-20T01:07:42;12.20;;;7.17;;
8317;SDS011;4196;48.926;8.964;2023-12-20T01:10:29;9.27;;;7.17;;
8317;SDS011;4196;48.926;8.964;2023-12-20T01:13:15;9.90;;;6.90;;
8317;SDS011;4196;48.926;8.964;2023-12-20T01:16:02;12.43;;;6.60;;
8317;SDS011;4196;48.926;8.964;2023-12-20T01:18:49;9.20;;;6.10;;
8317;SDS011;4196;48.926;8.964;2023-12-20T01:21:35;10.67;;;7.50;;
8317;SDS011;4196;48.926;8.964;2023-12-20T01:24:22;11.00;;;6.33;;
8317;SDS011;4196;48.926;8.964;2023-12-20T01:27:08;10.77;;;6.33;;
8317;SDS011;4196;48.926;8.964;2023-12-20T01:29:55;11.83;;;6.33;;
8317;SDS011;4196;48.926;8.964;2023-12-20T01:32:41;10.60;;;7.27;;
8317;SDS011;4196;48.926;8.964;2023-12-20T01:35:28;11.37;;;6.80;;
8317;SDS011;4196;48.926;8.964;2023-12-20T01:38:14;8.97;;;6.37;;
8317;SDS011;4196;48.926;8.964;2023-12-20T01:41:04;9.43;;;6.97;;
8317;SDS011;4196;48.926;8.964;2023-12-20T01:43:51;10.53;;;6.83;;
8317;SDS011;4196;48.926;8.964;2023-12-20T01:46:39;8.00;;;5.90;;
8317;SDS011;4196;48.926;8.964;2023-12-20T01:49:27;5.97;;;4.80;;
8317;SDS011;4196;48.926;8.964;2023-12-20T01:52:14;6.80;;;4.93;;
8317;SDS011;4196;48.926;8.964;2023-12-20T01:55:01;4.93;;;3.00;;
8317;SDS011;4196;48.926;8.964;2023-12-20T01:57:50;3.37;;;2.57;;
8317;SDS011;4196;48.926;8.964;2023-12-20T02:00:37;3.87;;;2.03;;
8317;SDS011;4196;48.926;8.964;2023-12-20T02:03:24;2.17;;;1.63;;
8317;SDS011;4196;48.926;8.964;2023-12-20T02:06:11;1.57;;;1.43;;
8317;SDS011;4196;48.926;8.964;2023-12-20T02:08:58;1.10;;;1.00;;
8317;SDS011;4196;48.926;8.964;2023-12-20T02:11:45;2.47;;;1.00;;
8317;SDS011;4196;48.926;8.964;2023-12-20T02:14:31;1.20;;;0.93;;
8317;SDS011;4196;48.926;8.964;2023-12-20T02:17:17;0.57;;;0.57;;
8317;SDS011;4196;48.926;8.964;2023-12-20T02:20:05;0.70;;;0.70;;
8317;SDS011;4196;48.926;8.964;2023-12-20T02:22:52;0.90;;;0.90;;
8317;SDS011;4196;48.926;8.964;2023-12-20T02:25:39;0.63;;;0.63;;
8317;SDS011;4196;48.926;8.964;2023-12-20T02:28:26;1.20;;;0.83;;
8317;SDS011;4196;48.926;8.964;2023-12-20T02:31:13;0.70;;;0.50;;
8317;SDS011;4196;48.926;8.964;2023-12-20T02:33:59;0.50;;;0.50;;
8317;SDS011;4196;48.926;8.964;2023-12-20T02:36:46;1.57;;;0.60;;
8317;SDS011;4196;48.926;8.964;2023-12-20T02:39:32;1.03;;;1.00;;
8317;SDS011;4196;48.926;8.964;2023-12-20T02:42:19;0.50;;;0.50;;
8317;SDS011;4196;48.926;8.964;2023-12-20T02:45:06;1.37;;;0.70;;
8317;SDS011;4196;48.926;8.964;2023-12-20T02:47:53;0.40;;;0.40;;
8317;SDS011;4196;48.926;8.964;2023-12-20T02:50:39;1.63;;;1.20;;
8317;SDS011;4196;48.926;8.964;2023-12-20T02:53:25;0.50;;;0.50;;
8317;SDS011;4196;48.926;8.964;2023-12-20T02:56:12;0.50;;;0.50;;
8317;SDS011;4196;48.926;8.964;2023-12-20T02:59:00;0.63;;;0.63;;
8317;SDS011;4196;48.926;8.964;2023-12-20T03:01:47;0.50;;;0.50;;
8317;SDS011;4196;48.926;8.964;2023-12-20T03:04:34;0.50;;;0.50;;
8317;SDS011;4196;48.926;8.964;2023-12-20T03:07:20;0.40;;;0.40;;
8317;SDS011;4196;48.926;8.964;2023-12-20T03:10:07;0.40;;;0.40;;
8317;SDS011;4196;48.926;8.964;2023-12-20T03:13:05;0.77;;;0.60;;
8317;SDS011;4196;48.926;8.964;2023-12-20T03:15:52;0.83;;;0.40;;
8317;SDS011;4196;48.926;8.964;2023-12-20T03:18:38;0.50;;;0.50;;
8317;SDS011;4196;48.926;8.964;2023-12-20T03:21:25;0.77;;;0.70;;
8317;SDS011;4196;48.926;8.964;2023-12-20T03:24:12;0.60;;;0.60;;
8317;SDS011;4196;48.926;8.964;2023-12-20T03:26:58;0.83;;;0.83;;
8317;SDS011;4196;48.926;8.964;2023-12-20T03:29:44;0.73;;;0.60;;
8317;SDS011;4196;48.926;8.964;2023-12-20T03:32:31;1.73;;;0.70;;
8317;SDS011;4196;48.926;8.964;2023-12-20T03:35:17;0.30;;;0.30;;
8317;SDS011;4196;48.926;8.964;2023-12-20T03:38:04;0.73;;;0.43;;
8317;SDS011;4196;48.926;8.964;2023-12-20T03:40:50;0.60;;;0.60;;
8317;SDS011;4196;48.926;8.964;2023-12-20T03:43:37;0.50;;;0.50;;
8317;SDS011;4196;48.926;8.964;2023-12-20T03:46:23;1.23;;;0.27;;
8317;SDS011;4196;48.926;8.964;2023-12-20T03:49:10;0.80;;;0.80;;
8317;SDS011;4196;48.926;8.964;2023-12-20T03:51:56;0.47;;;0.47;;
8317;SDS011;4196;48.926;8.964;2023-12-20T03:54:43;0.20;;;0.20;;
8317;SDS011;4196;48.926;8.964;2023-12-20T03:57:30;0.40;;;0.40;;
8317;SDS011;4196;48.926;8.964;2023-12-20T04:00:16;0.70;;;0.70;;
8317;SDS011;4196;48.926;8.964;2023-12-20T04:03:03;0.40;;;0.40;;
8317;SDS011;4196;48.926;8.964;2023-12-20T04:05:50;0.60;;;0.60;;
8317;SDS011;4196;48.926;8.964;2023-12-20T04:13:09;0.57;;;0.57;;
8317;SDS011;4196;48.926;8.964;2023-12-20T04:15:56;0.50;;;0.50;;
8317;SDS011;4196;48.926;8.964;2023-12-20T04:18:42;0.50;;;0.50;;
8317;SDS011;4196;48.926;8.964;2023-12-20T04:21:29;0.40;;;0.40;;
8317;SDS011;4196;48.926;8.964;2023-12-20T04:24:15;0.40;;;0.40;;
8317;SDS011;4196;48.926;8.964;2023-12-20T04:27:02;0.73;;;0.73;;
8317;SDS011;4196;48.926;8.964;2023-12-20T04:29:48;0.50;;;0.50;;
8317;SDS011;4196;48.926;8.964;2023-12-20T04:32:35;0.50;;;0.50;;
8317;SDS011;4196;48.926;8.964;2023-12-20T04:35:21;0.30;;;0.30;;
8317;SDS011;4196;48.926;8.964;2023-12-20T04:38:08;0.70;;;0.70;;
8317;SDS011;4196;48.926;8.964;2023-12-20T04:40:55;0.60;;;0.60;;
8317;SDS011;4196;48.926;8.964;2023-12-20T04:43:42;0.70;;;0.70;;
8317;SDS011;4196;48.926;8.964;2023-12-20T04:46:28;0.80;;;0.70;;
8317;SDS011;4196;48.926;8.964;2023-12-20T04:49:15;0.73;;;0.73;;
8317;SDS011;4196;48.926;8.964;2023-12-20T04:52:01;0.60;;;0.60;;
8317;SDS011;4196;48.926;8.964;2023-12-20T04:54:48;0.93;;;0.90;;
8317;SDS011;4196;48.926;8.964;2023-12-20T04:57:35;0.80;;;0.60;;
8317;SDS011;4196;48.926;8.964;2023-12-20T05:00:21;0.77;;;0.77;;
8317;SDS011;4196;48.926;8.964;2023-12-20T05:03:08;1.23;;;1.20;;
8317;SDS011;4196;48.926;8.964;2023-12-20T05:05:55;1.40;;;1.30;;
8317;SDS011;4196;48.926;8.964;2023-12-20T05:08:41;1.57;;;1.47;;
8317;SDS011;4196;48.926;8.964;2023-12-20T05:11:28;1.23;;;0.93;;
8317;SDS011;4196;48.926;8.964;2023-12-20T05:14:14;1.17;;;1.07;;
8317;SDS011;4196;48.926;8.964;2023-12-20T05:17:01;2.27;;;1.40;;
8317;SDS011;4196;48.926;8.964;2023-12-20T05:19:47;1.20;;;1.10;;
8317;SDS011;4196;48.926;8.964;2023-12-20T05:22:34;1.50;;;1.40;;
8317;SDS011;4196;48.926;8.964;2023-12-20T05:25:21;1.27;;;1.20;;
8317;SDS011;4196;48.926;8.964;2023-12-20T05:28:08;1.37;;;1.27;;
8317;SDS011;4196;48.926;8.964;2023-12-20T05:30:55;1.37;;;1.27;;
8317;SDS011;4196;48.926;8.964;2023-12-20T05:33:41;1.60;;;1.50;;
8317;SDS011;4196;48.926;8.964;2023-12-20T05:36:28;1.53;;;1.27;;
8317;SDS011;4196;48.926;8.964;2023-12-20T05:39:15;1.43;;;1.10;;
8317;SDS011;4196;48.926;8.964;2023-12-20T05:42:01;1.43;;;1.30;;
8317;SDS011;4196;48.926;8.964;2023-12-20T05:44:48;2.40;;;1.40;;
8317;SDS011;4196;48.926;8.964;2023-12-20T05:47:37;1.20;;;1.10;;
8317;SDS011;4196;48.926;8.964;2023-12-20T05:50:24;4.17;;;1.30;;
8317;SDS011;4196;48.926;8.964;2023-12-20T05:53:10;1.30;;;1.20;;
8317;SDS011;4196;48.926;8.964;2023-12-20T05:55:57;1.00;;;1.00;;
8317;SDS011;4196;48.926;8.964;2023-12-20T05:58:43;1.67;;;1.23;;
8317;SDS011;4196;48.926;8.964;2023-12-20T06:01:30;2.57;;;1.40;;
8317;SDS011;4196;48.926;8.964;2023-12-20T06:04:16;1.47;;;1.37;;
8317;SDS011;4196;48.926;8.964;2023-12-20T06:07:04;1.63;;;1.30;;
8317;SDS011;4196;48.926;8.964;2023-12-20T06:09:51;1.67;;;1.57;;
8317;SDS011;4196;48.926;8.964;2023-12-20T06:12:37;1.97;;;1.40;;
8317;SDS011;4196;48.926;8.964;2023-12-20T06:15:23;1.70;;;1.60;;
8317;SDS011;4196;48.926;8.964;2023-12-20T06:18:10;2.40;;;1.70;;
8317;SDS011;4196;48.926;8.964;2023-12-20T06:20:56;1.90;;;1.67;;
8317;SDS011;4196;48.926;8.964;2023-12-20T06:23:43;1.60;;;1.50;;
8317;SDS011;4196;48.926;8.964;2023-12-20T06:26:30;1.90;;;1.40;;
8317;SDS011;4196;48.926;8.964;2023-12-20T06:29:16;2.37;;;2.07;;
8317;SDS011;4196;48.926;8.964;2023-12-20T06:32:03;2.73;;;2.00;;
8317;SDS011;4196;48.926;8.964;2023-12-20T06:34:50;3.20;;;2.57;;
8317;SDS011;4196;48.926;8.964;2023-12-20T06:37:36;3.47;;;3.13;;
8317;SDS011;4196;48.926;8.964;2023-12-20T06:40:23;3.33;;;2.40;;
8317;SDS011;4196;48.926;8.964;2023-12-20T06:43:09;3.17;;;2.20;;
8317;SDS011;4196;48.926;8.964;2023-12-20T06:46:11;3.00;;;2.40;;
8317;SDS011;4196;48.926;8.964;2023-12-20T06:48:59;2.30;;;2.10;;
8317;SDS011;4196;48.926;8.964;2023-12-20T06:51:45;3.90;;;3.37;;
8317;SDS011;4196;48.926;8.964;2023-12-20T06:54:32;3.20;;;2.90;;
8317;SDS011;4196;48.926;8.964;2023-12-20T06:57:20;5.77;;;4.20;;
8317;SDS011;4196;48.926;8.964;2023-12-20T07:00:07;4.37;;;3.77;;
8317;SDS011;4196;48.926;8.964;2023-12-20T07:02:54;3.63;;;2.93;;
8317;SDS011;4196;48.926;8.964;2023-12-20T07:05:40;3.60;;;2.50;;
8317;SDS011;4196;48.926;8.964;2023-12-20T07:08:27;3.23;;;2.60;;
8317;SDS011;4196;48.926;8.964;2023-12-20T07:11:14;3.43;;;2.53;;
8317;SDS011;4196;48.926;8.964;2023-12-20T07:14:00;3.00;;;2.70;;
8317;SDS011;4196;48.926;8.964;2023-12-20T07:16:48;2.90;;;2.60;;
8317;SDS011;4196;48.926;8.964;2023-12-20T07:19:37;3.57;;;2.43;;
8317;SDS011;4196;48.926;8.964;2023-12-20T07:22:24;2.37;;;2.00;;
8317;SDS011;4196;48.926;8.964;2023-12-20T07:25:11;3.53;;;2.10;;
8317;SDS011;4196;48.926;8.964;2023-12-20T07:27:58;2.90;;;2.20;;
8317;SDS011;4196;48.926;8.964;2023-12-20T07:30:45;2.10;;;1.87;;
8317;SDS011;4196;48.926;8.964;2023-12-20T07:33:32;2.40;;;1.97;;
8317;SDS011;4196;48.926;8.964;2023-12-20T07:36:25;3.97;;;2.43;;
8317;SDS011;4196;48.926;8.964;2023-12-20T07:39:11;2.10;;;1.90;;
8317;SDS011;4196;48.926;8.964;2023-12-20T07:41:58;2.47;;;2.10;;
8317;SDS011;4196;48.926;8.964;2023-12-20T07:44:44;3.10;;;2.23;;
8317;SDS011;4196;48.926;8.964;2023-12-20T07:47:31;2.50;;;1.93;;
8317;SDS011;4196;48.926;8.964;2023-12-20T07:50:18;3.53;;;2.87;;
8317;SDS011;4196;48.926;8.964;2023-12-20T07:53:04;2.70;;;2.00;;
8317;SDS011;4196;48.926;8.964;2023-12-20T07:55:50;3.13;;;2.70;;
8317;SDS011;4196;48.926;8.964;2023-12-20T07:58:38;3.40;;;2.40;;
8317;SDS011;4196;48.926;8.964;2023-12-20T08:01:37;3.80;;;2.30;;
8317;SDS011;4196;48.926;8.964;2023-12-20T08:04:23;3.90;;;2.67;;
8317;SDS011;4196;48.926;8.964;2023-12-20T08:07:10;3.47;;;2.40;;
8317;SDS011;4196;48.926;8.964;2023-12-20T08:09:57;4.97;;;2.20;;
8317;SDS011;4196;48.926;8.964;2023-12-20T08:12:43;4.27;;;2.23;;
8317;SDS011;4196;48.926;8.964;2023-12-20T08:15:30;3.30;;;2.70;;
8317;SDS011;4196;48.926;8.964;2023-12-20T08:18:17;3.00;;;2.50;;
8317;SDS011;4196;48.926;8.964;2023-12-20T08:21:03;4.10;;;2.63;;
8317;SDS011;4196;48.926;8.964;2023-12-20T08:23:49;2.90;;;2.43;;
8317;SDS011;4196;48.926;8.964;2023-12-20T08:26:36;3.23;;;2.67;;
8317;SDS011;4196;48.926;8.964;2023-12-20T08:29:28;4.47;;;2.77;;
8317;SDS011;4196;48.926;8.964;2023-12-20T08:32:15;3.57;;;2.67;;
8317;SDS011;4196;48.926;8.964;2023-12-20T08:35:01;5.27;;;3.47;;
8317;SDS011;4196;48.926;8.964;2023-12-20T08:37:48;3.73;;;2.87;;
8317;SDS011;4196;48.926;8.964;2023-12-20T08:40:35;3.20;;;2.47;;
8317;SDS011;4196;48.926;8.964;2023-12-20T08:43:21;3.40;;;2.50;;
8317;SDS011;4196;48.926;8.964;2023-12-20T08:46:08;3.37;;;3.07;;
8317;SDS011;4196;48.926;8.964;2023-12-20T08:48:56;5.80;;;2.77;;
8317;SDS011;4196;48.926;8.964;2023-12-20T08:51:43;4.10;;;3.13;;
8317;SDS011;4196;48.926;8.964;2023-12-20T08:54:29;5.03;;;3.23;;
8317;SDS011;4196;48.926;8.964;2023-12-20T08:57:16;3.97;;;2.80;;
8317;SDS011;4196;48.926;8.964;2023-12-20T09:00:02;3.70;;;2.63;;
8317;SDS011;4196;48.926;8.964;2023-12-20T09:02:51;3.23;;;2.33;;
8317;SDS011;4196;48.926;8.964;2023-12-20T09:05:37;3.00;;;2.20;;
8317;SDS011;4196;48.926;8.964;2023-12-20T09:08:24;4.10;;;2.50;;
8317;SDS011;4196;48.926;8.964;2023-12-20T09:11:10;3.87;;;2.50;;
8317;SDS011;4196;48.926;8.964;2023-12-20T09:13:57;4.17;;;2.80;;
8317;SDS011;4196;48.926;8.964;2023-12-20T09:16:44;3.07;;;2.40;;
8317;SDS011;4196;48.926;8.964;2023-12-20T09:19:30;5.43;;;2.33;;
8317;SDS011;4196;48.926;8.964;2023-12-20T09:22:17;3.53;;;2.10;;
8317;SDS011;4196;48.926;8.964;2023-12-20T09:25:04;4.23;;;2.37;;
8317;SDS011;4196;48.926;8.964;2023-12-20T09:27:52;4.07;;;1.87;;
8317;SDS011;4196;48.926;8.964;2023-12-20T09:30:39;4.53;;;2.60;;
8317;SDS011;4196;48.926;8.964;2023-12-20T09:38:20;6.30;;;1.97;;
8317;SDS011;4196;48.926;8.964;2023-12-20T09:41:34;4.97;;;2.10;;
8317;SDS011;4196;48.926;8.964;2023-12-20T09:44:26;4.27;;;2.00;;
8317;SDS011;4196;48.926;8.964;2023-12-20T09:47:13;5.00;;;1.37;;
8317;SDS011;4196;48.926;8.964;2023-12-20T09:50:02;9.10;;;3.20;;
8317;SDS011;4196;48.926;8.964;2023-12-20T09:52:49;6.23;;;3.17;;
8317;SDS011;4196;48.926;8.964;2023-12-20T09:55:39;3.77;;;1.97;;
8317;SDS011;4196;48.926;8.964;2023-12-20T09:58:27;2.17;;;1.60;;
8317;SDS011;4196;48.926;8.964;2023-12-20T10:01:14;1.80;;;1.40;;
8317;SDS011;4196;48.926;8.964;2023-12-20T10:04:04;5.10;;;1.90;;
8317;SDS011;4196;48.926;8.964;2023-12-20T10:07:01;3.07;;;1.33;;
8317;SDS011;4196;48.926;8.964;2023-12-20T10:09:52;2.57;;;1.57;;
8317;SDS011;4196;48.926;8.964;2023-12-20T10:12:40;11.70;;;1.70;;
8317;SDS011;4196;48.926;8.964;2023-12-20T10:15:26;4.17;;;1.40;;
8317;SDS011;4196;48.926;8.964;2023-12-20T10:18:52;1.83;;;1.63;;
8317;SDS011;4196;48.926;8.964;2023-12-20T10:25:59;14.10;;;4.10;;
8317;SDS011;4196;48.926;8.964;2023-12-20T10:29:06;5.93;;;2.00;;
8317;SDS011;4196;48.926;8.964;2023-12-20T10:31:52;2.03;;;1.33;;
8317;SDS011;4196;48.926;8.964;2023-12-20T10:34:44;2.53;;;1.20;;
8317;SDS011;4196;48.926;8.964;2023-12-20T10:37:37;1.40;;;1.30;;
8317;SDS011;4196;48.926;8.964;2023-12-20T10:40:23;7.83;;;1.97;;
8317;SDS011;4196;48.926;8.964;2023-12-20T10:43:14;6.93;;;1.97;;
8317;SDS011;4196;48.926;8.964;2023-12-20T10:46:02;2.63;;;1.10;;
8317;SDS011;4196;48.926;8.964;2023-12-20T10:49:26;1.57;;;1.13;;
8317;SDS011;4196;48.926;8.964;2023-12-20T10:52:18;2.10;;;1.03;;
8317;SDS011;4196;48.926;8.964;2023-12-20T10:55:10;3.67;;;1.40;;
8317;SDS011;4196;48.926;8.964;2023-12-20T10:58:00;1.73;;;1.63;;
8317;SDS011;4196;48.926;8.964;2023-12-20T11:00:48;3.57;;;1.63;;
8317;SDS011;4196;48.926;8.964;2023-12-20T11:03:44;4.87;;;1.43;;
8317;SDS011;4196;48.926;8.964;2023-12-20T11:06:46;3.67;;;1.77;;
8317;SDS011;4196;48.926;8.964;2023-12-20T11:09:38;5.10;;;1.87;;
8317;SDS011;4196;48.926;8.964;2023-12-20T11:12:39;4.23;;;1.23;;
8317;SDS011;4196;48.926;8.964;2023-12-20T11:15:36;3.03;;;1.20;;
8317;SDS011;4196;48.926;8.964;2023-12-20T11:18:30;2.77;;;1.53;;
8317;SDS011;4196;48.926;8.964;2023-12-20T11:21:42;3.40;;;1.90;;
8317;SDS011;4196;48.926;8.964;2023-12-20T11:25:58;2.73;;;1.60;;
8317;SDS011;4196;48.926;8.964;2023-12-20T11:33:13;3.07;;;1.83;;
8317;SDS011;4196;48.926;8.964;2023-12-20T11:36:00;2.27;;;1.40;;
8317;SDS011;4196;48.926;8.964;2023-12-20T11:38:58;11.20;;;4.90;;
8317;SDS011;4196;48.926;8.964;2023-12-20T11:41:46;1.70;;;1.57;;
8317;SDS011;4196;48.926;8.964;2023-12-20T11:44:32;4.33;;;2.47;;
8317;SDS011;4196;48.926;8.964;2023-12-20T11:47:19;4.87;;;1.80;;
8317;SDS011;4196;48.926;8.964;2023-12-20T11:50:06;2.30;;;2.00;;
8317;SDS011;4196;48.926;8.964;2023-12-20T11:52:54;1.90;;;1.40;;
8317;SDS011;4196;48.926;8.964;2023-12-20T11:55:41;5.53;;;1.60;;
8317;SDS011;4196;48.926;8.964;2023-12-20T11:58:28;2.47;;;1.40;;
8317;SDS011;4196;48.926;8.964;2023-12-20T12:01:19;2.60;;;1.50;;
8317;SDS011;4196;48.926;8.964;2023-12-20T12:04:08;3.03;;;1.77;;
8317;SDS011;4196;48.926;8.964;2023-12-20T12:06:57;3.87;;;1.57;;
8317;SDS011;4196;48.926;8.964;2023-12-20T12:09:43;2.60;;;1.63;;
8317;SDS011;4196;48.926;8.964;2023-12-20T12:12:33;7.30;;;2.90;;
8317;SDS011;4196;48.926;8.964;2023-12-20T12:15:36;5.07;;;2.20;;
8317;SDS011;4196;48.926;8.964;2023-12-20T12:18:23;4.30;;;1.77;;
8317;SDS011;4196;48.926;8.964;2023-12-20T12:21:10;3.07;;;2.00;;
8317;SDS011;4196;48.926;8.964;2023-12-20T12:24:07;2.53;;;1.90;;
8317;SDS011;4196;48.926;8.964;2023-12-20T12:26:57;3.83;;;1.80;;
8317;SDS011;4196;48.926;8.964;2023-12-20T12:30:00;3.37;;;1.70;;
8317;SDS011;4196;48.926;8.964;2023-12-20T12:32:50;3.07;;;1.20;;
8317;SDS011;4196;48.926;8.964;2023-12-20T12:35:37;2.50;;;1.50;;
8317;SDS011;4196;48.926;8.964;2023-12-20T12:38:24;2.70;;;1.40;;
8317;SDS011;4196;48.926;8.964;2023-12-20T12:41:12;4.53;;;1.50;;
8317;SDS011;4196;48.926;8.964;2023-12-20T12:43:59;14.50;;;5.07;;
8317;SDS011;4196;48.926;8.964;2023-12-20T12:46:59;20.53;;;2.70;;
8317;SDS011;4196;48.926;8.964;2023-12-20T12:49:45;6.40;;;3.13;;
8317;SDS011;4196;48.926;8.964;2023-12-20T12:52:32;5.83;;;3.07;;
8317;SDS011;4196;48.926;8.964;2023-12-20T12:55:19;3.40;;;1.43;;
8317;SDS011;4196;48.926;8.964;2023-12-20T12:58:06;5.17;;;2.40;;
8317;SDS011;4196;48.926;8.964;2023-12-20T13:00:53;4.20;;;1.40;;
8317;SDS011;4196;48.926;8.964;2023-12-20T13:03:40;2.80;;;1.83;;
8317;SDS011;4196;48.926;8.964;2023-12-20T13:06:27;3.00;;;1.80;;
8317;SDS011;4196;48.926;8.964;2023-12-20T13:09:13;5.17;;;2.13;;
8317;SDS011;4196;48.926;8.964;2023-12-20T13:12:01;2.10;;;1.50;;
8317;SDS011;4196;48.926;8.964;2023-12-20T13:14:50;3.43;;;1.40;;
8317;SDS011;4196;48.926;8.964;2023-12-20T13:17:36;8.70;;;2.80;;
8317;SDS011;4196;48.926;8.964;2023-12-20T13:20:24;3.80;;;1.57;;
8317;SDS011;4196;48.926;8.964;2023-12-20T13:23:10;4.40;;;1.83;;
8317;SDS011;4196;48.926;8.964;2023-12-20T13:25:57;1.97;;;1.37;;
8317;SDS011;4196;48.926;8.964;2023-12-20T13:28:44;3.17;;;1.60;;
8317;SDS011;4196;48.926;8.964;2023-12-20T13:31:30;5.30;;;1.60;;
8317;SDS011;4196;48.926;8.964;2023-12-20T13:34:17;3.60;;;2.10;;
8317;SDS011;4196;48.926;8.964;2023-12-20T13:37:04;5.27;;;1.60;;
8317;SDS011;4196;48.926;8.964;2023-12-20T13:39:51;3.03;;;1.87;;
8317;SDS011;4196;48.926;8.964;2023-12-20T13:42:38;3.07;;;1.87;;
8317;SDS011;4196;48.926;8.964;2023-12-20T13:45:25;5.33;;;1.97;;
8317;SDS011;4196;48.926;8.964;2023-12-20T13:48:12;7.60;;;2.70;;
8317;SDS011;4196;48.926;8.964;2023-12-20T13:50:59;4.57;;;1.60;;
8317;SDS011;4196;48.926;8.964;2023-12-20T13:53:46;2.83;;;1.40;;
8317;SDS011;4196;48.926;8.964;2023-12-20T13:56:34;5.13;;;2.00;;
8317;SDS011;4196;48.926;8.964;2023-12-20T13:59:32;5.90;;;3.33;;
8317;SDS011;4196;48.926;8.964;2023-12-20T14:02:19;3.90;;;1.70;;
8317;SDS011;4196;48.926;8.964;2023-12-20T14:05:06;2.83;;;1.40;;
8317;SDS011;4196;48.926;8.964;2023-12-20T14:07:52;3.37;;;1.70;;
8317;SDS011;4196;48.926;8.964;2023-12-20T14:10:39;3.90;;;1.57;;
8317;SDS011;4196;48.926;8.964;2023-12-20T14:13:26;5.17;;;2.83;;
8317;SDS011;4196;48.926;8.964;2023-12-20T14:16:13;3.63;;;1.73;;
8317;SDS011;4196;48.926;8.964;2023-12-20T14:19:00;2.50;;;1.80;;
8317;SDS011;4196;48.926;8.964;2023-12-20T14:21:51;8.33;;;2.27;;
8317;SDS011;4196;48.926;8.964;2023-12-20T14:24:42;4.20;;;2.40;;
8317;SDS011;4196;48.926;8.964;2023-12-20T14:27:30;2.90;;;1.77;;
8317;SDS011;4196;48.926;8.964;2023-12-20T14:30:17;2.00;;;1.73;;
8317;SDS011;4196;48.926;8.964;2023-12-20T14:33:04;6.43;;;2.07;;
8317;SDS011;4196;48.926;8.964;2023-12-20T14:35:51;5.70;;;2.57;;
8317;SDS011;4196;48.926;8.964;2023-12-20T14:38:44;3.40;;;1.70;;
8317;SDS011;4196;48.926;8.964;2023-12-20T14:46:19;4.90;;;1.70;;
8317;SDS011;4196;48.926;8.964;2023-12-20T14:49:07;2.73;;;1.30;;
8317;SDS011;4196;48.926;8.964;2023-12-20T14:51:55;6.13;;;1.97;;
8317;SDS011;4196;48.926;8.964;2023-12-20T14:54:42;3.90;;;1.50;;
8317;SDS011;4196;48.926;8.964;2023-12-20T14:57:30;5.27;;;2.27;;
8317;SDS011;4196;48.926;8.964;2023-12-20T15:00:16;3.93;;;2.00;;
8317;SDS011;4196;48.926;8.964;2023-12-20T15:03:03;2.80;;;1.70;;
8317;SDS011;4196;48.926;8.964;2023-12-20T15:05:51;3.73;;;1.83;;
8317;SDS011;4196;48.926;8.964;2023-12-20T15:08:37;5.20;;;2.17;;
8317;SDS011;4196;48.926;8.964;2023-12-20T15:11:24;7.47;;;3.43;;
8317;SDS011;4196;48.926;8.964;2023-12-20T15:14:11;4.63;;;2.60;;
8317;SDS011;4196;48.926;8.964;2023-12-20T15:17:00;8.80;;;2.97;;
8317;SDS011;4196;48.926;8.964;2023-12-20T15:19:48;2.93;;;2.33;;
8317;SDS011;4196;48.926;8.964;2023-12-20T15:22:41;3.53;;;1.70;;
8317;SDS011;4196;48.926;8.964;2023-12-20T15:25:30;3.77;;;2.23;;
8317;SDS011;4196;48.926;8.964;2023-12-20T15:28:17;4.17;;;1.90;;
8317;SDS011;4196;48.926;8.964;2023-12-20T15:31:06;2.27;;;1.73;;
8317;SDS011;4196;48.926;8.964;2023-12-20T15:33:53;5.17;;;2.70;;
8317;SDS011;4196;48.926;8.964;2023-12-20T15:36:41;4.50;;;2.23;;
8317;SDS011;4196;48.926;8.964;2023-12-20T15:39:29;2.50;;;1.33;;
8317;SDS011;4196;48.926;8.964;2023-12-20T15:42:15;4.93;;;1.83;;
8317;SDS011;4196;48.926;8.964;2023-12-20T15:45:03;5.13;;;2.70;;
8317;SDS011;4196;48.926;8.964;2023-12-20T15:47:49;5.70;;;1.90;;
8317;SDS011;4196;48.926;8.964;2023-12-20T15:50:36;3.70;;;1.80;;
8317;SDS011;4196;48.926;8.964;2023-12-20T15:53:23;1.67;;;1.43;;
8317;SDS011;4196;48.926;8.964;2023-12-20T15:56:09;5.87;;;2.33;;
8317;SDS011;4196;48.926;8.964;2023-12-20T15:58:56;3.17;;;1.17;;
8317;SDS011;4196;48.926;8.964;2023-12-20T16:01:44;4.40;;;2.00;;
8317;SDS011;4196;48.926;8.964;2023-12-20T16:04:40;4.07;;;2.30;;
8317;SDS011;4196;48.926;8.964;2023-12-20T16:07:27;4.43;;;1.77;;
8317;SDS011;4196;48.926;8.964;2023-12-20T16:10:14;3.30;;;1.20;;
8317;SDS011;4196;48.926;8.964;2023-12-20T16:13:01;3.10;;;1.60;;
8317;SDS011;4196;48.926;8.964;2023-12-20T16:15:48;6.47;;;1.90;;
8317;SDS011;4196;48.926;8.964;2023-12-20T16:18:34;4.40;;;1.70;;
8317;SDS011;4196;48.926;8.964;2023-12-20T16:21:21;8.37;;;1.40;;
8317;SDS011;4196;48.926;8.964;2023-12-20T16:24:08;1.70;;;1.20;;
8317;SDS011;4196;48.926;8.964;2023-12-20T16:26:55;4.60;;;2.60;;
8317;SDS011;4196;48.926;8.964;2023-12-20T16:29:41;3.97;;;1.90;;
8317;SDS011;4196;48.926;8.964;2023-12-20T16:32:27;4.37;;;2.30;;
8317;SDS011;4196;48.926;8.964;2023-12-20T16:35:14;4.67;;;1.70;;
8317;SDS011;4196;48.926;8.964;2023-12-20T16:38:00;4.27;;;2.60;;
8317;SDS011;4196;48.926;8.964;2023-12-20T16:40:47;4.47;;;1.53;;
8317;SDS011;4196;48.926;8.964;2023-12-20T16:43:34;3.73;;;1.27;;
8317;SDS011;4196;48.926;8.964;2023-12-20T16:46:21;3.23;;;1.73;;
8317;SDS011;4196;48.926;8.964;2023-12-20T16:49:08;2.13;;;1.40;;
8317;SDS011;4196;48.926;8.964;2023-12-20T16:51:55;2.93;;;1.37;;
8317;SDS011;4196;48.926;8.964;2023-12-20T16:54:42;1.97;;;1.00;;
8317;SDS011;4196;48.926;8.964;2023-12-20T16:57:28;5.27;;;2.03;;
8317;SDS011;4196;48.926;8.964;2023-12-20T17:00:15;4.33;;;2.63;;
8317;SDS011;4196;48.926;8.964;2023-12-20T17:03:02;2.60;;;1.87;;
8317;SDS011;4196;48.926;8.964;2023-12-20T17:06:28;3.13;;;1.40;;
8317;SDS011;4196;48.926;8.964;2023-12-20T17:09:15;1.97;;;1.70;;
8317;SDS011;4196;48.926;8.964;2023-12-20T17:12:05;2.20;;;2.00;;
8317;SDS011;4196;48.926;8.964;2023-12-20T17:14:54;3.57;;;2.30;;
8317;SDS011;4196;48.926;8.964;2023-12-20T17:17:41;1.87;;;1.10;;
8317;SDS011;4196;48.926;8.964;2023-12-20T17:20:31;2.30;;;1.40;;
8317;SDS011;4196;48.926;8.964;2023-12-20T17:23:18;2.17;;;1.33;;
8317;SDS011;4196;48.926;8.964;2023-12-20T17:26:04;1.83;;;0.90;;
8317;SDS011;4196;48.926;8.964;2023-12-20T17:28:51;3.83;;;1.23;;
8317;SDS011;4196;48.926;8.964;2023-12-20T17:31:37;5.23;;;1.77;;
8317;SDS011;4196;48.926;8.964;2023-12-20T17:34:24;5.40;;;1.60;;
8317;SDS011;4196;48.926;8.964;2023-12-20T17:37:11;2.53;;;1.47;;
8317;SDS011;4196;48.926;8.964;2023-12-20T17:39:58;3.83;;;1.50;;
8317;SDS011;4196;48.926;8.964;2023-12-20T17:42:45;2.27;;;1.37;;
8317;SDS011;4196;48.926;8.964;2023-12-20T17:45:31;2.13;;;1.23;;
8317;SDS011;4196;48.926;8.964;2023-12-20T17:48:17;2.00;;;1.90;;